createdAt,value
2023-01-10T00:00:50.310Z,2.55
2023-01-10T00:03:18.854Z,0.98
2023-01-10T00:05:45.535Z,0.77
2023-01-10T00:08:16.556Z,2.92
2023-01-10T00:10:43.538Z,0.90
2023-01-10T00:13:24.467Z,1.17
2023-01-10T00:15:53.593Z,0.85
2023-01-10T00:18:21.456Z,0.95
2023-01-10T00:20:49.580Z,1.30
2023-01-10T00:23:18.760Z,0.90
2023-01-10T00:25:47.166Z,0.70
2023-01-10T00:28:20.374Z,1.10
2023-01-10T00:30:56.027Z,1.58
2023-01-10T00:33:23.583Z,0.68
2023-01-10T00:35:50.856Z,1.27
2023-01-10T00:38:17.839Z,2.63
2023-01-10T00:40:46.453Z,1.08
2023-01-10T00:43:45.705Z,2.65
2023-01-10T00:46:13.062Z,2.47
2023-01-10T00:48:41.330Z,2.33
2023-01-10T00:51:09.283Z,1.67
2023-01-10T00:53:36.097Z,1.00
2023-01-10T00:56:03.106Z,1.20
2023-01-10T00:58:29.816Z,1.20
2023-01-10T01:00:56.666Z,1.23
2023-01-10T01:03:23.393Z,1.23
2023-01-10T01:05:50.612Z,1.60
2023-01-10T01:08:18.535Z,1.02
2023-01-10T01:10:47.482Z,1.40
2023-01-10T01:13:17.526Z,2.70
2023-01-10T01:15:46.438Z,3.90
2023-01-10T01:18:16.815Z,3.30
2023-01-10T01:20:46.635Z,1.38
2023-01-10T01:23:14.821Z,1.77
2023-01-10T01:25:41.557Z,1.20
2023-01-10T01:28:09.394Z,6.63
2023-01-10T01:30:36.216Z,1.55
2023-01-10T01:33:03.068Z,2.33
2023-01-10T01:35:30.036Z,3.33
2023-01-10T01:37:57.065Z,1.57
2023-01-10T01:40:25.064Z,4.75
2023-01-10T01:42:56.163Z,2.33
2023-01-10T01:45:22.875Z,2.42
2023-01-10T01:48:14.119Z,4.35
2023-01-10T01:51:05.805Z,2.88
2023-01-10T01:53:53.112Z,2.05
2023-01-10T01:56:28.922Z,2.42
2023-01-10T01:59:13.899Z,3.15
2023-01-10T02:01:44.367Z,10.20
2023-01-10T02:04:17.031Z,3.85
2023-01-10T02:06:46.416Z,3.53
2023-01-10T02:09:25.595Z,7.63
2023-01-10T02:11:52.884Z,5.15
2023-01-10T02:14:22.015Z,3.83
2023-01-10T02:16:48.738Z,3.45
2023-01-10T02:19:21.529Z,3.15
2023-01-10T02:22:13.174Z,2.97
2023-01-10T02:25:12.172Z,1.50
2023-01-10T02:28:20.539Z,2.92
2023-01-10T02:31:02.458Z,3.22
2023-01-10T02:33:46.959Z,7.30
2023-01-10T02:36:44.279Z,1.73
2023-01-10T02:39:24.169Z,3.20
2023-01-10T02:42:04.366Z,2.67
2023-01-10T02:44:43.436Z,3.72
2023-01-10T02:47:10.417Z,1.48
2023-01-10T02:49:44.504Z,3.30
2023-01-10T02:52:14.544Z,2.53
2023-01-10T02:54:42.199Z,2.45
2023-01-10T03:00:03.638Z,4.10
2023-01-10T03:02:42.803Z,4.22
2023-01-10T03:05:24.729Z,1.90
2023-01-10T03:08:09.643Z,1.80
2023-01-10T03:10:57.060Z,2.03
2023-01-10T03:13:44.834Z,2.20
2023-01-10T03:16:19.143Z,4.07
2023-01-10T03:18:54.151Z,3.20
2023-01-10T03:21:24.975Z,2.17
2023-01-10T03:23:56.235Z,2.55
2023-01-10T03:26:54.073Z,1.63
2023-01-10T03:29:42.408Z,3.42
2023-01-10T03:32:12.145Z,3.78
2023-01-10T03:34:40.160Z,4.85
2023-01-10T03:37:30.132Z,3.33
2023-01-10T03:40:23.596Z,7.90
2023-01-10T03:43:26.776Z,7.70
2023-01-10T03:46:13.559Z,4.05
2023-01-10T03:48:43.935Z,6.85
2023-01-10T03:51:12.543Z,6.72
2023-01-10T03:53:40.004Z,3.60
2023-01-10T03:56:07.652Z,2.97
2023-01-10T04:01:02.753Z,3.20
2023-01-10T04:03:29.812Z,3.00
2023-01-10T04:05:58.961Z,2.90
2023-01-10T04:08:25.696Z,4.00
2023-01-10T04:10:54.195Z,3.47
2023-01-10T04:13:21.103Z,5.50
2023-01-10T04:15:48.247Z,3.45
2023-01-10T04:18:15.831Z,2.67
2023-01-10T04:23:17.103Z,4.70
2023-01-10T04:25:47.668Z,3.97
2023-01-10T04:28:14.583Z,2.70
2023-01-10T04:30:41.347Z,2.90
2023-01-10T04:33:10.526Z,2.37
2023-01-10T04:35:37.264Z,6.53
2023-01-10T04:38:04.068Z,3.60
2023-01-10T04:40:31.076Z,5.23
2023-01-10T04:42:58.092Z,3.63
2023-01-10T04:45:26.141Z,3.20
2023-01-10T04:47:56.017Z,4.63
2023-01-10T04:50:24.056Z,3.55
2023-01-10T04:52:50.839Z,3.53
2023-01-10T04:55:17.812Z,2.87
2023-01-10T04:57:44.825Z,2.42
2023-01-10T05:00:12.445Z,4.25
2023-01-10T05:05:12.628Z,2.80
2023-01-10T05:07:40.286Z,5.25
2023-01-10T05:12:34.803Z,3.25
2023-01-10T05:15:01.744Z,8.60
2023-01-10T05:17:28.488Z,3.22
2023-01-10T05:19:55.221Z,6.97
2023-01-10T05:22:21.899Z,6.47
2023-01-10T05:24:49.011Z,7.17
2023-01-10T05:27:16.015Z,7.53
2023-01-10T05:29:43.056Z,7.28
2023-01-10T05:32:11.895Z,8.63
2023-01-10T05:34:38.629Z,5.75
2023-01-10T05:37:05.483Z,5.13
2023-01-10T05:39:32.359Z,4.38
2023-01-10T05:41:59.095Z,5.40
2023-01-10T05:44:25.843Z,4.83
2023-01-10T05:46:53.888Z,3.53
2023-01-10T05:49:20.682Z,3.83
2023-01-10T05:51:47.485Z,2.97
2023-01-10T05:54:14.547Z,2.72
2023-01-10T05:56:41.531Z,3.47
2023-01-10T05:59:17.234Z,3.83
2023-01-10T06:01:54.123Z,3.67
2023-01-10T06:04:21.095Z,3.73
2023-01-10T06:06:48.487Z,2.75
2023-01-10T06:09:15.194Z,2.90
2023-01-10T06:11:42.157Z,4.47
2023-01-10T06:14:08.899Z,4.78
2023-01-10T06:16:35.855Z,3.33
2023-01-10T06:19:02.580Z,4.35
2023-01-10T06:21:29.303Z,3.50
2023-01-10T06:23:57.968Z,3.60
2023-01-10T06:28:51.712Z,3.60
2023-01-10T06:31:22.570Z,3.05
2023-01-10T06:33:53.397Z,3.40
2023-01-10T06:36:21.379Z,2.78
2023-01-10T06:38:48.216Z,3.72
2023-01-10T06:41:15.036Z,6.83
2023-01-10T06:43:42.789Z,6.60
2023-01-10T06:48:37.524Z,2.65
2023-01-10T06:51:07.236Z,3.20
2023-01-10T06:53:34.048Z,6.38
2023-01-10T06:56:00.833Z,3.73
2023-01-10T06:58:30.761Z,4.43
2023-01-10T07:00:59.313Z,3.58
2023-01-10T07:03:26.687Z,4.97
2023-01-10T07:05:53.632Z,3.20
2023-01-10T07:08:20.562Z,4.72
2023-01-10T07:10:47.445Z,4.28
2023-01-10T07:13:14.374Z,4.07
2023-01-10T07:15:41.052Z,4.10
2023-01-10T07:18:07.813Z,3.93
2023-01-10T07:20:34.600Z,4.03
2023-01-10T07:23:01.482Z,4.23
2023-01-10T07:25:30.304Z,5.75
2023-01-10T07:27:57.213Z,6.28
2023-01-10T07:30:25.896Z,4.88
2023-01-10T07:33:00.889Z,5.05
2023-01-10T07:35:27.829Z,6.75
2023-01-10T07:37:57.645Z,5.97
2023-01-10T07:40:24.402Z,5.63
2023-01-10T07:42:57.907Z,5.90
2023-01-10T07:45:24.800Z,6.93
2023-01-10T07:47:55.375Z,7.03
2023-01-10T07:50:22.096Z,5.50
2023-01-10T07:52:48.977Z,6.07
2023-01-10T07:55:15.828Z,6.28
2023-01-10T07:57:42.496Z,4.80
2023-01-10T08:00:10.253Z,6.25
2023-01-10T08:02:37.199Z,5.45
2023-01-10T08:05:06.810Z,6.07
2023-01-10T08:07:33.508Z,6.55
2023-01-10T08:10:00.232Z,6.07
2023-01-10T08:12:27.217Z,5.50
2023-01-10T08:14:53.995Z,14.07
2023-01-10T08:17:20.809Z,7.57
2023-01-10T08:19:47.513Z,8.00
2023-01-10T08:22:14.323Z,6.72
2023-01-10T08:24:43.422Z,9.23
2023-01-10T08:27:11.001Z,6.90
2023-01-10T08:29:38.056Z,10.05
2023-01-10T08:32:05.075Z,9.95
2023-01-10T08:34:31.860Z,6.82
2023-01-10T08:36:58.567Z,7.47
2023-01-10T08:39:28.217Z,18.20
2023-01-10T08:41:54.989Z,5.90
2023-01-10T08:44:21.967Z,12.67
2023-01-10T08:46:49.341Z,18.67
2023-01-10T08:49:16.067Z,10.13
2023-01-10T08:51:44.843Z,10.13
2023-01-10T08:54:11.606Z,9.50
2023-01-10T08:56:40.352Z,9.70
2023-01-10T08:59:08.711Z,13.23
2023-01-10T09:01:36.067Z,9.00
2023-01-10T09:04:03.775Z,4.20
2023-01-10T09:08:57.344Z,5.50
2023-01-10T09:11:24.016Z,4.78
2023-01-10T09:13:51.602Z,3.25
2023-01-10T09:16:18.988Z,4.40
2023-01-10T09:18:46.067Z,5.53
2023-01-10T09:21:12.810Z,5.28
2023-01-10T09:23:40.663Z,5.17
2023-01-10T09:26:07.473Z,4.13
2023-01-10T09:28:34.485Z,6.57
2023-01-10T09:31:04.469Z,6.10
2023-01-10T09:33:45.732Z,3.80
2023-01-10T09:36:15.383Z,5.72
2023-01-10T09:38:42.332Z,5.35
2023-01-10T09:41:27.559Z,4.80
2023-01-10T09:44:16.147Z,4.18
2023-01-10T09:47:21.268Z,4.75
2023-01-10T09:50:29.423Z,6.03
2023-01-10T09:53:08.737Z,7.65
2023-01-10T09:55:38.230Z,4.45
2023-01-10T09:58:12.104Z,4.95
2023-01-10T10:00:53.980Z,3.80
2023-01-10T10:03:39.022Z,14.65
2023-01-10T10:06:12.819Z,5.47
2023-01-10T10:08:44.868Z,5.68
2023-01-10T10:11:26.669Z,3.35
2023-01-10T10:14:02.638Z,4.03
2023-01-10T10:17:03.703Z,6.20
2023-01-10T10:19:47.619Z,3.13
2023-01-10T10:22:39.773Z,2.92
2023-01-10T10:25:30.919Z,3.67
2023-01-10T10:28:41.198Z,4.00
2023-01-10T10:31:38.592Z,5.20
2023-01-10T10:34:21.007Z,8.80
2023-01-10T10:36:57.137Z,5.40
2023-01-10T10:39:36.600Z,3.38
2023-01-10T10:42:06.351Z,5.85
2023-01-10T10:44:40.686Z,2.88
2023-01-10T10:47:21.345Z,3.38
2023-01-10T10:49:55.000Z,7.72
2023-01-10T10:52:34.927Z,3.90
2023-01-10T10:55:05.786Z,4.75
2023-01-10T10:57:35.602Z,2.88
2023-01-10T11:00:04.167Z,4.57
2023-01-10T11:02:35.811Z,1.83
2023-01-10T11:05:08.929Z,2.45
2023-01-10T11:07:39.657Z,6.65
2023-01-10T11:10:22.152Z,6.18
2023-01-10T11:12:53.038Z,2.97
2023-01-10T11:15:39.601Z,4.05
2023-01-10T11:18:20.937Z,4.18
2023-01-10T11:20:58.152Z,3.83
2023-01-10T11:23:30.825Z,6.05
2023-01-10T11:26:00.221Z,2.13
2023-01-10T11:28:30.975Z,5.40
2023-01-10T11:30:59.170Z,5.50
2023-01-10T11:33:32.584Z,3.40
2023-01-10T11:36:05.344Z,2.67
2023-01-10T11:38:32.766Z,8.15
2023-01-10T11:41:22.723Z,4.32
2023-01-10T11:43:49.453Z,3.42
2023-01-10T11:46:25.959Z,8.27
2023-01-10T11:49:19.432Z,5.20
2023-01-10T11:51:50.131Z,8.95
2023-01-10T11:54:23.814Z,8.38
2023-01-10T11:57:09.677Z,10.63
2023-01-10T11:59:38.395Z,8.57
2023-01-10T12:02:31.014Z,7.18
2023-01-10T12:05:02.093Z,3.63
2023-01-10T12:07:29.135Z,9.63
2023-01-10T12:10:05.767Z,7.65
2023-01-10T12:12:35.252Z,4.30
2023-01-10T12:15:22.430Z,5.32
2023-01-10T12:17:49.590Z,6.78
2023-01-10T12:20:17.037Z,4.75
2023-01-10T12:22:47.343Z,47.53
2023-01-10T12:25:34.860Z,9.45
2023-01-10T12:28:01.849Z,9.85
2023-01-10T12:30:33.651Z,29.60
2023-01-10T12:33:04.549Z,7.75
2023-01-10T12:36:07.312Z,3.95
2023-01-10T12:39:06.041Z,4.72
2023-01-10T12:42:05.441Z,6.95
2023-01-10T12:44:41.847Z,3.72
2023-01-10T12:47:17.562Z,6.00
2023-01-10T12:49:53.321Z,4.07
2023-01-10T12:52:34.700Z,5.35
2023-01-10T12:55:03.240Z,2.45
2023-01-10T12:57:39.794Z,4.63
2023-01-10T13:00:15.522Z,3.70
2023-01-10T13:02:45.553Z,3.17
2023-01-10T13:05:20.190Z,3.03
2023-01-10T13:07:49.241Z,7.03
2023-01-10T13:10:19.894Z,3.28
2023-01-10T13:13:12.855Z,5.07
2023-01-10T13:15:51.267Z,2.58
2023-01-10T13:18:28.514Z,4.78
2023-01-10T13:21:13.789Z,5.28
2023-01-10T13:23:45.931Z,2.28
2023-01-10T13:26:12.850Z,3.60
2023-01-10T13:29:00.903Z,2.30
2023-01-10T13:31:32.702Z,8.13
2023-01-10T13:34:03.489Z,6.63
2023-01-10T13:36:37.929Z,3.33
2023-01-10T13:39:09.194Z,2.00
2023-01-10T13:42:16.681Z,4.50
2023-01-10T13:45:02.270Z,3.60
2023-01-10T13:47:41.018Z,6.93
2023-01-10T13:50:22.897Z,4.88
2023-01-10T13:53:06.858Z,3.50
2023-01-10T13:55:53.938Z,4.20
2023-01-10T13:58:42.196Z,7.70
2023-01-10T14:01:45.228Z,5.15
2023-01-10T14:04:25.117Z,9.05
2023-01-10T14:07:01.091Z,3.08
2023-01-10T14:09:36.306Z,3.53
2023-01-10T14:12:09.086Z,2.25
2023-01-10T14:14:39.216Z,7.05
2023-01-10T14:17:28.640Z,5.22
2023-01-10T14:20:06.454Z,4.45
2023-01-10T14:22:38.639Z,4.20
2023-01-10T14:25:20.833Z,3.13
2023-01-10T14:27:51.082Z,1.83
2023-01-10T14:30:32.738Z,5.60
2023-01-10T14:33:15.560Z,5.57
2023-01-10T14:35:54.470Z,2.60
2023-01-10T14:38:28.111Z,2.63
2023-01-10T14:41:18.240Z,2.58
2023-01-10T14:44:28.594Z,4.82
2023-01-10T14:46:57.432Z,5.10
2023-01-10T14:49:34.159Z,4.90
2023-01-10T14:52:22.629Z,0.57
2023-01-10T14:55:04.042Z,6.05
2023-01-10T14:57:32.850Z,3.88
2023-01-10T15:00:13.041Z,6.80
2023-01-10T15:02:48.510Z,7.72
2023-01-10T15:05:23.596Z,6.43
2023-01-10T15:07:50.754Z,2.92
2023-01-10T15:10:39.764Z,4.00
2023-01-10T15:13:07.334Z,4.88
2023-01-10T15:15:37.291Z,4.28
2023-01-10T15:18:22.132Z,9.88
2023-01-10T15:20:49.025Z,9.35
2023-01-10T15:23:16.143Z,14.57
2023-01-10T15:25:44.156Z,15.00
2023-01-10T15:28:19.745Z,16.42
2023-01-10T15:30:47.540Z,16.55
2023-01-10T15:33:26.822Z,13.90
2023-01-10T15:35:53.980Z,9.07
2023-01-10T15:38:26.639Z,2.88
2023-01-10T15:40:58.274Z,2.38
2023-01-10T15:43:30.094Z,3.35
2023-01-10T15:45:59.103Z,7.90
2023-01-10T15:48:47.888Z,5.75
2023-01-10T15:51:27.567Z,6.00
2023-01-10T15:54:07.060Z,5.60
2023-01-10T15:56:40.929Z,6.93
2023-01-10T15:59:23.919Z,4.55
2023-01-10T16:01:56.201Z,7.07
2023-01-10T16:04:23.395Z,7.20
2023-01-10T16:07:04.204Z,7.45
2023-01-10T16:09:31.728Z,6.45
2023-01-10T16:12:17.256Z,7.63
2023-01-10T16:14:44.008Z,19.02
2023-01-10T16:17:12.833Z,24.25
2023-01-10T16:19:39.823Z,7.85
2023-01-10T16:22:07.027Z,10.02
2023-01-10T16:24:36.011Z,7.68
2023-01-10T16:27:06.293Z,8.07
2023-01-10T16:29:33.867Z,8.80
2023-01-10T16:32:00.865Z,6.65
2023-01-10T16:34:27.639Z,6.35
2023-01-10T16:36:58.536Z,9.73
2023-01-10T16:39:25.332Z,12.18
2023-01-10T16:42:12.376Z,6.20
2023-01-10T16:44:39.571Z,14.13
2023-01-10T16:47:07.180Z,10.05
2023-01-10T16:49:35.455Z,9.25
2023-01-10T16:52:05.062Z,7.53
2023-01-10T16:54:35.585Z,9.73
2023-01-10T16:57:02.497Z,7.82
2023-01-10T16:59:29.266Z,10.63
2023-01-10T17:01:58.229Z,11.85
2023-01-10T17:04:28.240Z,11.85
2023-01-10T17:06:57.681Z,14.95
2023-01-10T17:09:27.946Z,14.80
2023-01-10T17:12:02.121Z,17.65
2023-01-10T17:14:37.223Z,17.55
2023-01-10T17:17:04.707Z,23.48
2023-01-10T17:19:31.775Z,19.23
2023-01-10T17:21:58.905Z,23.50
2023-01-10T17:24:25.618Z,18.25
2023-01-10T17:26:52.526Z,23.20
2023-01-10T17:29:19.932Z,33.92
2023-01-10T17:34:15.274Z,39.63
2023-01-10T17:36:42.613Z,34.37
2023-01-10T17:39:10.691Z,29.20
2023-01-10T17:41:38.975Z,25.00
2023-01-10T17:44:05.847Z,25.40
2023-01-10T17:46:34.014Z,35.53
2023-01-10T17:49:02.872Z,33.15
2023-01-10T17:51:31.114Z,32.08
2023-01-10T17:53:58.295Z,34.03
2023-01-10T17:56:25.256Z,36.53
2023-01-10T17:58:53.243Z,33.28
2023-01-10T18:01:25.344Z,27.23
2023-01-10T18:03:52.626Z,21.95
2023-01-10T18:06:25.252Z,17.77
2023-01-10T18:08:53.408Z,22.88
2023-01-10T18:11:21.036Z,29.58
2023-01-10T18:13:47.768Z,44.55
2023-01-10T18:16:14.500Z,36.43
2023-01-10T18:18:41.338Z,47.10
2023-01-10T18:21:14.379Z,41.35
2023-01-10T18:23:41.196Z,40.47
2023-01-10T18:26:10.647Z,52.33
2023-01-10T18:28:42.947Z,59.20
2023-01-10T18:31:19.626Z,38.10
2023-01-10T18:33:47.552Z,34.83
2023-01-10T18:36:18.214Z,99.72
2023-01-10T18:38:48.349Z,94.22
2023-01-10T18:41:16.176Z,51.05
2023-01-10T18:43:42.912Z,34.58
2023-01-10T18:46:15.384Z,32.37
2023-01-10T18:48:42.134Z,30.30
2023-01-10T18:51:12.303Z,29.60
2023-01-10T18:53:39.139Z,25.92
2023-01-10T18:56:06.380Z,24.13
2023-01-10T18:58:40.478Z,37.10
2023-01-10T19:01:09.874Z,25.80
2023-01-10T19:03:37.157Z,26.02
2023-01-10T19:06:05.381Z,41.60
2023-01-10T19:08:32.678Z,23.77
2023-01-10T19:11:13.074Z,20.23
2023-01-10T19:13:40.850Z,25.48
2023-01-10T19:16:22.301Z,26.17
2023-01-10T19:18:57.226Z,13.65
2023-01-10T19:21:25.728Z,12.02
2023-01-10T19:23:57.856Z,13.25
2023-01-10T19:26:27.373Z,18.08
2023-01-10T19:28:54.182Z,18.42
2023-01-10T19:31:27.522Z,22.73
2023-01-10T19:33:57.961Z,26.85
2023-01-10T19:36:26.296Z,23.63
2023-01-10T19:38:57.438Z,17.42
2023-01-10T19:41:29.829Z,19.30
2023-01-10T19:44:02.000Z,20.48
2023-01-10T19:46:31.720Z,24.23
2023-01-10T19:49:02.053Z,21.58
2023-01-10T19:51:28.926Z,26.42
2023-01-10T19:53:55.643Z,29.63
2023-01-10T19:56:23.479Z,25.73
2023-01-10T19:58:50.745Z,32.72
2023-01-10T20:01:25.110Z,25.15
2023-01-10T20:03:52.370Z,26.00
2023-01-10T20:06:21.981Z,36.95
2023-01-10T20:08:49.391Z,40.08
2023-01-10T20:11:18.142Z,40.35
2023-01-10T20:13:45.391Z,38.22
2023-01-10T20:16:13.675Z,29.98
2023-01-10T20:18:41.122Z,32.70
2023-01-10T20:21:10.394Z,22.63
2023-01-10T20:23:39.078Z,20.67
2023-01-10T20:26:10.610Z,22.40
2023-01-10T20:28:38.683Z,19.67
2023-01-10T20:31:08.704Z,17.70
2023-01-10T20:33:36.831Z,18.38
2023-01-10T20:36:10.401Z,20.13
2023-01-10T20:38:38.049Z,20.30
2023-01-10T20:41:13.601Z,18.70
2023-01-10T20:43:40.813Z,18.92
2023-01-10T20:46:16.312Z,24.60
2023-01-10T20:48:43.291Z,24.30
2023-01-10T20:51:20.693Z,22.83
2023-01-10T20:53:48.843Z,30.30
2023-01-10T20:56:24.047Z,32.80
2023-01-10T20:58:52.359Z,30.13
2023-01-10T21:01:33.074Z,28.08
2023-01-10T21:04:02.431Z,28.40
2023-01-10T21:06:29.217Z,27.77
2023-01-10T21:08:56.332Z,26.13
2023-01-10T21:11:23.547Z,29.13
2023-01-10T21:13:50.417Z,22.08
2023-01-10T21:16:19.833Z,21.63
2023-01-10T21:18:47.762Z,20.05
2023-01-10T21:21:17.048Z,22.92
2023-01-10T21:23:43.971Z,29.40
2023-01-10T21:26:14.959Z,25.55
2023-01-10T21:28:46.042Z,21.33
2023-01-10T21:31:14.755Z,24.25
2023-01-10T21:33:41.476Z,21.50
2023-01-10T21:36:08.735Z,15.83
2023-01-10T21:38:40.419Z,29.48
2023-01-10T21:41:11.457Z,26.10
2023-01-10T21:43:38.760Z,22.45
2023-01-10T21:46:08.297Z,26.45
2023-01-10T21:48:35.198Z,22.05
2023-01-10T21:51:03.012Z,21.77
2023-01-10T21:53:29.948Z,21.42
2023-01-10T21:55:59.930Z,20.40
2023-01-10T21:58:27.199Z,22.85
2023-01-10T22:00:56.436Z,21.30
2023-01-10T22:03:23.492Z,26.98
2023-01-10T22:05:50.301Z,28.92
2023-01-10T22:08:17.232Z,22.97
2023-01-10T22:10:44.230Z,31.60
2023-01-10T22:13:10.915Z,24.13
2023-01-10T22:15:38.347Z,27.67
2023-01-10T22:18:05.098Z,31.50
2023-01-10T22:20:32.286Z,37.57
2023-01-10T22:22:59.009Z,40.45
2023-01-10T22:25:25.998Z,37.23
2023-01-10T22:27:53.457Z,41.40
2023-01-10T22:30:20.304Z,39.70
2023-01-10T22:32:47.065Z,30.42
2023-01-10T22:35:14.655Z,36.22
2023-01-10T22:40:09.618Z,20.30
2023-01-10T22:42:37.690Z,34.00
2023-01-10T22:45:04.738Z,35.10
2023-01-10T22:47:33.112Z,33.17
2023-01-10T22:50:00.863Z,35.70
2023-01-10T22:52:27.560Z,28.15
2023-01-10T22:54:54.376Z,26.77
2023-01-10T22:57:21.112Z,31.17
2023-01-10T22:59:47.906Z,27.40
2023-01-10T23:02:14.865Z,25.90
2023-01-10T23:04:41.570Z,24.27
2023-01-10T23:07:08.364Z,26.43
2023-01-10T23:09:35.196Z,25.50
2023-01-10T23:12:02.021Z,26.27
2023-01-10T23:14:28.865Z,23.60
2023-01-10T23:16:55.672Z,22.70
2023-01-10T23:19:22.727Z,25.95
2023-01-10T23:21:51.310Z,21.05
2023-01-10T23:24:18.137Z,28.10
2023-01-10T23:26:45.088Z,25.17
2023-01-10T23:29:12.114Z,26.92
2023-01-10T23:31:39.797Z,23.58
2023-01-10T23:34:06.632Z,16.52
2023-01-10T23:36:33.375Z,19.13
2023-01-10T23:39:00.134Z,23.40
2023-01-10T23:41:27.128Z,24.13
2023-01-10T23:43:54.013Z,18.55
2023-01-10T23:46:20.976Z,18.23
2023-01-10T23:48:48.613Z,18.17
2023-01-10T23:53:44.209Z,12.00
2023-01-10T23:56:13.692Z,18.92
2023-01-10T23:58:40.914Z,15.50
